createdAt,value
2022-08-09T00:00:20.962Z,21.31
2022-08-09T00:02:49.497Z,21.34
2022-08-09T00:06:15.705Z,21.19
2022-08-09T00:08:10.085Z,21.38
2022-08-09T00:10:39.898Z,21.24
2022-08-09T00:13:17.636Z,21.34
2022-08-09T00:15:59.015Z,21.08
2022-08-09T00:18:35.624Z,21.24
2022-08-09T00:21:08.656Z,21.04
2022-08-09T00:23:55.773Z,21.27
2022-08-09T00:26:30.139Z,21.20
2022-08-09T00:29:00.787Z,21.11
2022-08-09T00:31:58.362Z,20.80
2022-08-09T00:34:32.615Z,20.82
2022-08-09T00:37:09.224Z,20.96
2022-08-09T00:40:12.001Z,20.94
2022-08-09T00:44:14.504Z,20.86
2022-08-09T00:45:15.895Z,20.89
2022-08-09T00:47:43.315Z,20.87
2022-08-09T00:50:14.207Z,20.82
2022-08-09T00:52:41.579Z,20.95
2022-08-09T00:55:08.828Z,20.53
2022-08-09T00:57:43.541Z,20.77
2022-08-09T01:00:22.149Z,20.59
2022-08-09T01:02:51.977Z,20.52
2022-08-09T01:05:51.755Z,20.39
2022-08-09T01:08:26.627Z,20.36
2022-08-09T01:11:15.029Z,20.51
2022-08-09T01:13:59.586Z,20.42
2022-08-09T01:16:47.404Z,20.35
2022-08-09T01:19:40.024Z,20.44
2022-08-09T01:22:56.152Z,20.49
2022-08-09T01:25:41.814Z,20.39
2022-08-09T01:28:09.757Z,20.44
2022-08-09T01:30:51.982Z,20.44
2022-08-09T01:33:27.439Z,20.39
2022-08-09T01:36:07.568Z,20.37
2022-08-09T01:38:41.064Z,20.43
2022-08-09T01:41:18.669Z,20.34
2022-08-09T01:43:55.045Z,20.39
2022-08-09T01:46:30.277Z,20.27
2022-08-09T01:49:17.184Z,20.14
2022-08-09T01:51:54.668Z,20.23
2022-08-09T01:54:43.588Z,20.16
2022-08-09T01:57:21.675Z,20.10
2022-08-09T01:59:52.633Z,19.98
2022-08-09T02:02:31.941Z,20.01
2022-08-09T02:05:11.866Z,19.81
2022-08-09T02:08:39.539Z,19.94
2022-08-09T02:10:50.907Z,19.57
2022-08-09T02:13:19.656Z,19.77
2022-08-09T02:15:50.429Z,19.72
2022-08-09T02:18:23.740Z,19.70
2022-08-09T02:20:55.373Z,19.70
2022-08-09T02:23:25.611Z,19.46
2022-08-09T02:25:59.560Z,19.30
2022-08-09T02:29:03.889Z,19.20
2022-08-09T02:31:34.035Z,19.18
2022-08-09T02:34:13.284Z,18.96
2022-08-09T02:36:54.201Z,18.86
2022-08-09T02:39:41.867Z,18.84
2022-08-09T02:42:13.133Z,18.76
2022-08-09T02:44:46.873Z,18.90
2022-08-09T02:47:15.351Z,18.72
2022-08-09T02:50:20.171Z,18.72
2022-08-09T02:52:55.127Z,18.91
2022-08-09T02:55:23.680Z,18.94
2022-08-09T02:58:36.396Z,18.75
2022-08-09T03:00:59.111Z,18.77
2022-08-09T03:04:12.493Z,18.70
2022-08-09T03:06:27.979Z,18.41
2022-08-09T03:08:56.426Z,18.28
2022-08-09T03:11:29.734Z,18.34
2022-08-09T03:14:10.800Z,18.23
2022-08-09T03:16:41.729Z,18.30
2022-08-09T03:19:52.795Z,18.38
2022-08-09T03:22:24.870Z,18.42
2022-08-09T03:27:45.186Z,17.85
2022-08-09T03:30:13.392Z,17.78
2022-08-09T03:32:41.021Z,17.76
2022-08-09T03:35:24.179Z,17.71
2022-08-09T03:37:59.413Z,17.56
2022-08-09T03:40:31.139Z,17.43
2022-08-09T03:42:57.737Z,17.35
2022-08-09T03:46:05.126Z,17.22
2022-08-09T03:48:10.984Z,17.28
2022-08-09T03:50:37.845Z,17.40
2022-08-09T03:53:10.676Z,17.49
2022-08-09T03:55:40.695Z,17.37
2022-08-09T03:58:16.113Z,17.28
2022-08-09T04:00:45.537Z,17.25
2022-08-09T04:03:24.679Z,17.24
2022-08-09T04:05:59.028Z,17.14
2022-08-09T04:08:28.739Z,17.22
2022-08-09T04:10:55.895Z,17.20
2022-08-09T04:14:37.396Z,17.30
2022-08-09T04:16:20.632Z,17.17
2022-08-09T04:18:47.700Z,16.99
2022-08-09T04:21:15.807Z,16.92
2022-08-09T04:23:57.592Z,16.93
2022-08-09T04:26:25.207Z,17.00
2022-08-09T04:29:12.159Z,16.95
2022-08-09T04:31:47.768Z,16.88
2022-08-09T04:34:19.214Z,16.76
2022-08-09T04:36:58.439Z,16.76
2022-08-09T04:39:25.101Z,16.67
2022-08-09T04:41:57.605Z,16.54
2022-08-09T04:44:26.887Z,16.66
2022-08-09T04:46:58.341Z,16.50
2022-08-09T04:52:18.450Z,16.60
2022-08-09T04:54:51.301Z,16.73
2022-08-09T04:57:23.715Z,16.67
2022-08-09T04:59:52.982Z,16.60
2022-08-09T05:02:19.499Z,16.71
2022-08-09T05:04:47.384Z,16.80
2022-08-09T05:07:19.261Z,16.98
2022-08-09T05:09:49.652Z,16.93
2022-08-09T05:12:16.824Z,17.10
2022-08-09T05:14:43.333Z,17.00
2022-08-09T05:18:36.860Z,16.95
2022-08-09T05:19:56.694Z,16.92
2022-08-09T05:22:36.257Z,17.11
2022-08-09T05:25:23.440Z,17.09
2022-08-09T05:27:55.548Z,17.14
2022-08-09T05:30:22.129Z,17.47
2022-08-09T05:32:50.981Z,17.98
2022-08-09T05:35:22.135Z,18.46
2022-08-09T05:37:55.875Z,19.00
2022-08-09T05:40:32.544Z,19.44
2022-08-09T05:42:59.026Z,19.92
2022-08-09T05:45:25.739Z,20.03
2022-08-09T05:48:10.114Z,20.56
2022-08-09T05:50:51.308Z,20.64
2022-08-09T05:53:33.458Z,21.31
2022-08-09T05:56:01.625Z,21.46
2022-08-09T05:58:28.242Z,21.91
2022-08-09T06:00:54.690Z,21.73
2022-08-09T06:03:21.185Z,22.15
2022-08-09T06:05:54.512Z,22.43
2022-08-09T06:08:25.194Z,22.52
2022-08-09T06:10:53.921Z,22.84
2022-08-09T06:13:20.983Z,23.11
2022-08-09T06:15:51.783Z,23.32
2022-08-09T06:18:23.996Z,23.90
2022-08-09T06:20:54.531Z,23.97
2022-08-09T06:23:24.846Z,23.68
2022-08-09T06:26:11.389Z,23.89
2022-08-09T06:28:37.930Z,24.15
2022-08-09T06:31:04.919Z,24.63
2022-08-09T06:33:41.525Z,24.19
2022-08-09T06:36:09.490Z,23.83
2022-08-09T06:38:38.643Z,24.53
2022-08-09T06:41:18.709Z,25.02
2022-08-09T06:43:46.562Z,25.37
2022-08-09T06:46:13.263Z,25.49
2022-08-09T06:49:00.392Z,24.97
2022-08-09T06:51:27.261Z,25.15
2022-08-09T06:53:54.892Z,25.80
2022-08-09T06:56:21.354Z,26.12
2022-08-09T07:00:50.757Z,25.46
2022-08-09T07:01:54.026Z,26.06
2022-08-09T07:04:24.285Z,26.35
2022-08-09T07:06:53.403Z,26.11
2022-08-09T07:09:55.984Z,26.17
2022-08-09T07:12:07.380Z,25.69
2022-08-09T07:14:40.530Z,26.19
2022-08-09T07:17:08.203Z,26.42
2022-08-09T07:19:34.854Z,26.28
2022-08-09T07:22:01.452Z,26.42
2022-08-09T07:24:40.722Z,26.63
2022-08-09T07:27:26.843Z,26.17
2022-08-09T07:29:58.785Z,26.92
2022-08-09T07:32:33.107Z,26.70
2022-08-09T07:35:11.376Z,26.96
2022-08-09T07:37:44.126Z,26.92
2022-08-09T07:40:18.546Z,26.49
2022-08-09T07:42:54.390Z,27.06
2022-08-09T07:45:36.965Z,27.25
2022-08-09T07:48:25.543Z,27.48
2022-08-09T07:51:09.777Z,27.75
2022-08-09T07:54:05.126Z,26.89
2022-08-09T07:56:30.889Z,27.72
2022-08-09T07:58:59.276Z,27.38
2022-08-09T08:01:34.289Z,27.44
2022-08-09T08:04:03.270Z,27.92
2022-08-09T08:06:31.903Z,27.94
2022-08-09T08:09:00.856Z,27.87
2022-08-09T08:12:09.918Z,28.15
2022-08-09T08:14:17.122Z,27.97
2022-08-09T08:17:00.604Z,27.06
2022-08-09T08:19:31.495Z,27.51
2022-08-09T08:21:58.190Z,27.70
2022-08-09T08:24:25.193Z,27.41
2022-08-09T08:27:01.914Z,27.92
2022-08-09T08:29:28.688Z,28.25
2022-08-09T08:32:06.331Z,28.19
2022-08-09T08:34:34.565Z,28.22
2022-08-09T08:37:03.226Z,28.28
2022-08-09T08:39:38.259Z,28.71
2022-08-09T08:42:13.141Z,28.16
2022-08-09T08:44:41.799Z,27.96
2022-08-09T08:47:13.066Z,28.63
2022-08-09T08:49:47.179Z,28.10
2022-08-09T08:55:15.103Z,28.30
2022-08-09T08:57:56.453Z,28.18
2022-08-09T09:00:27.551Z,27.95
2022-08-09T09:03:02.810Z,28.65
2022-08-09T09:05:58.767Z,28.75
2022-08-09T09:08:30.319Z,28.71
2022-08-09T09:11:05.742Z,28.75
2022-08-09T09:13:41.901Z,28.91
2022-08-09T09:16:31.061Z,28.82
2022-08-09T09:19:37.297Z,29.16
2022-08-09T09:21:57.988Z,29.28
2022-08-09T09:24:37.800Z,29.44
2022-08-09T09:27:05.726Z,29.03
2022-08-09T09:30:07.174Z,29.80
2022-08-09T09:32:34.175Z,29.54
2022-08-09T09:35:13.035Z,30.07
2022-08-09T09:37:45.534Z,29.37
2022-08-09T09:40:12.505Z,29.87
2022-08-09T09:42:39.743Z,29.94
2022-08-09T09:45:14.463Z,30.22
2022-08-09T09:47:58.783Z,29.71
2022-08-09T09:50:49.712Z,30.39
2022-08-09T09:53:20.285Z,30.34
2022-08-09T09:56:03.985Z,30.45
2022-08-09T09:58:48.012Z,30.51
2022-08-09T10:01:37.305Z,30.37
2022-08-09T10:04:22.992Z,30.25
2022-08-09T10:06:57.252Z,30.65
2022-08-09T10:09:24.365Z,29.91
2022-08-09T10:12:14.635Z,30.48
2022-08-09T10:14:49.004Z,30.18
2022-08-09T10:17:40.407Z,29.74
2022-08-09T10:20:27.216Z,30.22
2022-08-09T10:23:13.668Z,30.57
2022-08-09T10:26:07.626Z,30.64
2022-08-09T10:28:33.694Z,30.68
2022-08-09T10:34:11.072Z,30.87
2022-08-09T10:36:35.546Z,31.00
2022-08-09T10:39:02.991Z,30.19
2022-08-09T10:41:32.518Z,30.78
2022-08-09T10:44:03.088Z,30.80
2022-08-09T10:46:29.479Z,30.92
2022-08-09T10:49:07.046Z,30.58
2022-08-09T10:52:05.538Z,30.58
2022-08-09T10:54:33.224Z,31.08
2022-08-09T10:57:11.181Z,31.14
2022-08-09T10:59:43.141Z,31.06
2022-08-09T11:03:13.974Z,30.98
2022-08-09T11:05:30.019Z,30.47
2022-08-09T11:07:59.342Z,31.16
2022-08-09T11:10:53.334Z,31.50
2022-08-09T11:13:51.365Z,31.44
2022-08-09T11:16:35.705Z,31.13
2022-08-09T11:19:09.294Z,31.22
2022-08-09T11:21:55.266Z,31.43
2022-08-09T11:24:57.917Z,31.72
2022-08-09T11:28:03.999Z,31.76
2022-08-09T11:30:33.247Z,31.79
2022-08-09T11:33:16.677Z,31.28
2022-08-09T11:35:49.909Z,31.60
2022-08-09T11:38:18.045Z,31.97
2022-08-09T11:40:45.435Z,31.73
2022-08-09T11:43:16.907Z,31.90
2022-08-09T11:45:55.462Z,32.52
2022-08-09T11:48:27.559Z,32.18
2022-08-09T11:52:48.669Z,31.69
2022-08-09T11:54:00.351Z,32.26
2022-08-09T11:56:41.426Z,31.99
2022-08-09T11:59:30.213Z,31.71
2022-08-09T12:02:16.132Z,32.39
2022-08-09T12:04:47.350Z,32.80
2022-08-09T12:07:14.362Z,32.32
2022-08-09T12:09:51.024Z,32.65
2022-08-09T12:12:20.395Z,32.54
2022-08-09T12:15:07.731Z,32.57
2022-08-09T12:17:43.549Z,32.52
2022-08-09T12:20:21.413Z,32.79
2022-08-09T12:22:56.118Z,32.28
2022-08-09T12:25:36.525Z,32.14
2022-08-09T12:29:15.031Z,32.57
2022-08-09T12:31:59.163Z,32.13
2022-08-09T12:34:13.828Z,31.99
2022-08-09T12:37:09.849Z,32.52
2022-08-09T12:39:41.266Z,32.91
2022-08-09T12:42:09.468Z,32.68
2022-08-09T12:44:39.693Z,32.79
2022-08-09T12:47:12.774Z,32.37
2022-08-09T12:49:51.017Z,32.21
2022-08-09T12:52:19.659Z,32.63
2022-08-09T12:56:13.681Z,32.87
2022-08-09T12:57:54.705Z,32.81
2022-08-09T13:00:29.434Z,32.52
2022-08-09T13:03:01.532Z,32.90
2022-08-09T13:05:52.395Z,32.66
2022-08-09T13:08:39.821Z,33.04
2022-08-09T13:11:13.186Z,32.63
2022-08-09T13:14:42.653Z,32.96
2022-08-09T13:16:46.027Z,33.10
2022-08-09T13:20:09.520Z,32.45
2022-08-09T13:22:35.772Z,32.36
2022-08-09T13:25:07.433Z,32.07
2022-08-09T13:27:39.452Z,32.19
2022-08-09T13:30:50.310Z,32.85
2022-08-09T13:33:03.912Z,32.63
2022-08-09T13:35:34.563Z,32.95
2022-08-09T13:38:54.586Z,33.16
2022-08-09T13:41:46.925Z,33.16
2022-08-09T13:43:51.026Z,32.80
2022-08-09T13:47:16.719Z,33.15
2022-08-09T13:49:04.022Z,32.97
2022-08-09T13:51:31.854Z,32.25
2022-08-09T13:53:58.418Z,32.74
2022-08-09T13:56:25.553Z,32.58
2022-08-09T13:58:53.508Z,32.83
2022-08-09T14:02:00.645Z,32.84
2022-08-09T14:04:11.392Z,32.52
2022-08-09T14:06:43.865Z,32.53
2022-08-09T14:09:13.212Z,32.73
2022-08-09T14:11:47.151Z,32.83
2022-08-09T14:14:22.579Z,32.95
2022-08-09T14:16:51.695Z,33.19
2022-08-09T14:19:20.558Z,33.14
2022-08-09T14:21:47.215Z,33.43
2022-08-09T14:24:21.964Z,33.34
2022-08-09T14:26:58.344Z,33.63
2022-08-09T14:30:15.141Z,33.62
2022-08-09T14:32:16.160Z,33.33
2022-08-09T14:34:43.059Z,33.17
2022-08-09T14:37:09.860Z,33.29
2022-08-09T14:39:45.537Z,33.29
2022-08-09T14:42:30.260Z,33.16
2022-08-09T14:45:00.790Z,33.06
2022-08-09T14:47:44.641Z,32.61
2022-08-09T14:50:16.144Z,32.58
2022-08-09T14:52:43.899Z,32.59
2022-08-09T14:55:20.271Z,32.62
2022-08-09T14:57:47.789Z,32.73
2022-08-09T15:00:15.641Z,32.81
2022-08-09T15:02:42.128Z,32.81
2022-08-09T15:05:10.414Z,32.50
2022-08-09T15:07:37.100Z,32.94
2022-08-09T15:10:10.798Z,33.09
2022-08-09T15:12:40.649Z,32.63
2022-08-09T15:15:12.011Z,33.01
2022-08-09T15:17:42.544Z,32.72
2022-08-09T15:20:15.458Z,33.01
2022-08-09T15:23:02.925Z,32.71
2022-08-09T15:25:46.005Z,32.62
2022-08-09T15:28:20.188Z,32.48
2022-08-09T15:31:01.816Z,32.52
2022-08-09T15:34:17.101Z,32.02
2022-08-09T15:36:20.139Z,32.04
2022-08-09T15:38:55.074Z,32.12
2022-08-09T15:41:23.025Z,32.80
2022-08-09T15:43:58.398Z,32.43
2022-08-09T15:46:33.696Z,32.68
2022-08-09T15:49:20.730Z,32.43
2022-08-09T15:52:04.337Z,32.46
2022-08-09T15:54:46.255Z,32.68
2022-08-09T15:57:18.954Z,31.88
2022-08-09T16:00:06.226Z,31.76
2022-08-09T16:02:33.035Z,31.39
2022-08-09T16:04:59.470Z,31.61
2022-08-09T16:07:30.818Z,31.61
2022-08-09T16:10:11.167Z,31.61
2022-08-09T16:12:50.149Z,31.43
2022-08-09T16:16:04.698Z,31.79
2022-08-09T16:18:08.974Z,31.67
2022-08-09T16:20:37.943Z,31.97
2022-08-09T16:23:08.425Z,31.92
2022-08-09T16:25:40.248Z,31.34
2022-08-09T16:28:07.346Z,31.40
2022-08-09T16:30:33.813Z,31.69
2022-08-09T16:33:09.926Z,31.51
2022-08-09T16:35:57.111Z,31.45
2022-08-09T16:38:26.436Z,31.37
2022-08-09T16:40:52.987Z,31.21
2022-08-09T16:43:20.919Z,30.92
2022-08-09T16:45:48.122Z,31.34
2022-08-09T16:48:40.193Z,31.42
2022-08-09T16:51:08.534Z,30.81
2022-08-09T16:54:02.436Z,30.78
2022-08-09T16:56:27.138Z,30.73
2022-08-09T16:58:58.112Z,30.98
2022-08-09T17:01:25.451Z,31.12
2022-08-09T17:03:52.535Z,31.23
2022-08-09T17:06:29.043Z,31.12
2022-08-09T17:09:11.711Z,31.21
2022-08-09T17:11:44.508Z,31.19
2022-08-09T17:14:26.057Z,30.79
2022-08-09T17:17:01.701Z,30.70
2022-08-09T17:19:47.607Z,30.72
2022-08-09T17:22:25.156Z,30.74
2022-08-09T17:25:03.753Z,30.58
2022-08-09T17:27:32.905Z,30.63
2022-08-09T17:29:59.448Z,30.67
2022-08-09T17:32:35.058Z,30.51
2022-08-09T17:35:10.555Z,30.39
2022-08-09T17:38:02.432Z,30.19
2022-08-09T17:40:27.043Z,30.21
2022-08-09T17:42:59.820Z,30.17
2022-08-09T17:46:04.284Z,30.12
2022-08-09T17:48:28.684Z,30.07
2022-08-09T17:50:59.342Z,30.05
2022-08-09T17:53:43.290Z,29.85
2022-08-09T17:56:14.585Z,29.84
2022-08-09T17:58:44.765Z,29.66
2022-08-09T18:01:22.216Z,29.56
2022-08-09T18:03:49.714Z,29.49
2022-08-09T18:06:31.079Z,29.45
2022-08-09T18:09:00.719Z,29.59
2022-08-09T18:11:27.176Z,29.45
2022-08-09T18:14:03.515Z,29.33
2022-08-09T18:16:48.892Z,29.31
2022-08-09T18:20:57.866Z,29.04
2022-08-09T18:22:06.189Z,29.02
2022-08-09T18:24:39.993Z,29.02
2022-08-09T18:27:08.463Z,29.03
2022-08-09T18:30:39.646Z,28.83
2022-08-09T18:32:21.483Z,28.83
2022-08-09T18:34:48.728Z,28.71
2022-08-09T18:37:48.429Z,28.65
2022-08-09T18:40:02.267Z,28.58
2022-08-09T18:42:29.467Z,28.54
2022-08-09T18:44:57.100Z,28.52
2022-08-09T18:47:27.805Z,28.48
2022-08-09T18:50:05.814Z,28.25
2022-08-09T18:52:36.132Z,28.22
2022-08-09T18:55:03.879Z,28.14
2022-08-09T18:57:38.491Z,28.08
2022-08-09T19:00:11.145Z,27.99
2022-08-09T19:02:38.262Z,27.96
2022-08-09T19:05:19.920Z,27.93
2022-08-09T19:08:04.656Z,27.91
2022-08-09T19:10:39.271Z,27.88
2022-08-09T19:13:20.852Z,27.63
2022-08-09T19:15:51.719Z,27.61
2022-08-09T19:18:33.060Z,27.46
2022-08-09T19:21:05.227Z,27.36
2022-08-09T19:24:31.946Z,27.29
2022-08-09T19:26:19.066Z,27.13
2022-08-09T19:28:56.113Z,27.08
2022-08-09T19:31:27.910Z,26.92
2022-08-09T19:33:57.941Z,26.79
2022-08-09T19:36:31.081Z,26.81
2022-08-09T19:39:01.235Z,26.60
2022-08-09T19:41:32.862Z,26.45
2022-08-09T19:44:03.118Z,26.50
2022-08-09T19:46:35.326Z,26.48
2022-08-09T19:50:07.709Z,26.47
2022-08-09T19:51:55.885Z,26.19
2022-08-09T19:54:27.033Z,26.15
2022-08-09T19:56:54.851Z,25.89
2022-08-09T19:59:57.564Z,25.71
2022-08-09T20:02:17.089Z,25.53
2022-08-09T20:04:58.642Z,25.57
2022-08-09T20:07:26.163Z,25.47
2022-08-09T20:10:17.923Z,25.36
2022-08-09T20:12:48.995Z,25.22
2022-08-09T20:16:37.864Z,25.21
2022-08-09T20:18:02.876Z,25.08
2022-08-09T20:20:34.391Z,24.97
2022-08-09T20:23:01.044Z,25.01
2022-08-09T20:25:28.975Z,24.89
2022-08-09T20:28:24.524Z,24.88
2022-08-09T20:31:00.940Z,24.69
2022-08-09T20:33:29.560Z,24.63
2022-08-09T20:36:08.409Z,24.42
2022-08-09T20:39:02.905Z,24.65
2022-08-09T20:41:34.986Z,24.67
2022-08-09T20:44:05.181Z,24.56
2022-08-09T20:46:43.346Z,24.34
2022-08-09T20:49:12.922Z,24.49
2022-08-09T20:51:41.423Z,24.36
2022-08-09T20:54:12.655Z,24.24
2022-08-09T20:56:43.998Z,24.20
2022-08-09T20:59:17.320Z,24.16
2022-08-09T21:01:51.529Z,24.08
2022-08-09T21:05:53.509Z,24.01
2022-08-09T21:07:11.414Z,23.87
2022-08-09T21:09:45.313Z,23.88
2022-08-09T21:14:48.362Z,23.97
2022-08-09T21:18:24.061Z,23.91
2022-08-09T21:20:19.523Z,23.74
2022-08-09T21:22:52.591Z,23.79
2022-08-09T21:25:39.523Z,23.89
2022-08-09T21:28:12.030Z,23.93
2022-08-09T21:30:40.594Z,23.88
2022-08-09T21:33:08.271Z,23.82
2022-08-09T21:35:40.763Z,23.69
2022-08-09T21:38:18.518Z,23.70
2022-08-09T21:40:58.153Z,23.69
2022-08-09T21:43:57.085Z,23.68
2022-08-09T21:46:12.302Z,23.68
2022-08-09T21:48:42.432Z,23.72
2022-08-09T21:51:14.109Z,23.76
2022-08-09T21:53:53.736Z,23.74
2022-08-09T21:56:33.823Z,23.51
2022-08-09T21:59:06.753Z,23.60
2022-08-09T22:01:58.933Z,23.65
2022-08-09T22:04:20.653Z,23.75
2022-08-09T22:06:59.028Z,23.70
2022-08-09T22:09:28.647Z,23.67
2022-08-09T22:12:17.842Z,23.68
2022-08-09T22:14:42.479Z,23.69
2022-08-09T22:17:09.095Z,23.72
2022-08-09T22:19:58.492Z,23.65
2022-08-09T22:22:24.498Z,23.68
2022-08-09T22:26:04.284Z,23.71
2022-08-09T22:27:38.254Z,23.71
2022-08-09T22:30:07.751Z,23.69
2022-08-09T22:32:34.741Z,23.69
2022-08-09T22:35:06.691Z,23.56
2022-08-09T22:37:49.783Z,23.72
2022-08-09T22:40:34.309Z,23.73
2022-08-09T22:43:00.886Z,23.72
2022-08-09T22:48:14.691Z,23.64
2022-08-09T22:48:35.880Z,23.70
2022-08-09T22:51:00.324Z,23.70
2022-08-09T22:53:44.127Z,23.71
2022-08-09T22:56:33.356Z,23.62
2022-08-09T22:59:01.597Z,23.72
2022-08-09T23:01:32.938Z,23.60
2022-08-09T23:04:04.816Z,23.51
2022-08-09T23:06:52.091Z,23.60
2022-08-09T23:09:18.885Z,23.49
2022-08-09T23:11:45.536Z,23.51
2022-08-09T23:14:17.073Z,23.36
2022-08-09T23:16:44.424Z,23.42
2022-08-09T23:19:11.163Z,23.39
2022-08-09T23:21:39.161Z,23.44
2022-08-09T23:24:07.283Z,23.33
2022-08-09T23:26:38.685Z,23.39
2022-08-09T23:29:13.577Z,23.34
2022-08-09T23:31:41.213Z,23.40
2022-08-09T23:34:10.891Z,23.29
2022-08-09T23:36:37.661Z,23.33
2022-08-09T23:39:06.267Z,23.32
2022-08-09T23:41:38.478Z,23.34
2022-08-09T23:44:05.564Z,23.18
2022-08-09T23:46:32.702Z,23.22
2022-08-09T23:48:59.908Z,23.27
2022-08-09T23:51:27.209Z,23.20
2022-08-09T23:53:55.144Z,23.26
2022-08-09T23:56:53.053Z,23.22
2022-08-09T23:59:08.930Z,23.19
